sensor_id;sensor_type;location;lat;lon;timestamp;P1;P2;P0
82823;PMS5003;72575;46.834;-71.234;2024-02-04T00:02:09;26.53;23.21;10.74
82823;PMS5003;72575;46.834;-71.234;2024-02-04T00:04:36;15.32;13.79;8.16
82823;PMS5003;72575;46.834;-71.234;2024-02-04T00:07:02;18.67;16.94;10.39
82823;PMS5003;72575;46.834;-71.234;2024-02-04T00:09:25;20.28;18.56;10.5
82823;PMS5003;72575;46.834;-71.234;2024-02-04T00:11:51;15;13.06;8.67
82823;PMS5003;72575;46.834;-71.234;2024-02-04T00:14:17;17.11;15.83;9.56
82823;PMS5003;72575;46.834;-71.234;2024-02-04T00:16:40;17.95;16.95;9.95
82823;PMS5003;72575;46.834;-71.234;2024-02-04T00:19:08;17.78;17;9.94
82823;PMS5003;72575;46.834;-71.234;2024-02-04T00:21:33;19.89;18.84;11.84
82823;PMS5003;72575;46.834;-71.234;2024-02-04T00:23:59;20.45;19.35;9.6
82823;PMS5003;72575;46.834;-71.234;2024-02-04T00:26:25;19.33;17.89;11.22
82823;PMS5003;72575;46.834;-71.234;2024-02-04T00:28:49;33.5;30.25;16
82823;PMS5003;72575;46.834;-71.234;2024-02-04T00:31:13;30.83;28.11;16.17
82823;PMS5003;72575;46.834;-71.234;2024-02-04T00:33:39;32.05;30;12.74
82823;PMS5003;72575;46.834;-71.234;2024-02-04T00:36:06;32.95;30.65;15.5
82823;PMS5003;72575;46.834;-71.234;2024-02-04T00:38:30;25.89;22.95;14.89
82823;PMS5003;72575;46.834;-71.234;2024-02-04T00:40:55;27.55;24;11.7
82823;PMS5003;72575;46.834;-71.234;2024-02-04T00:43:22;23.85;19.6;12.45
82823;PMS5003;72575;46.834;-71.234;2024-02-04T00:45:47;24.78;23.94;13.94
82823;PMS5003;72575;46.834;-71.234;2024-02-04T00:48:12;19.89;16.39;11.28
82823;PMS5003;72575;46.834;-71.234;2024-02-04T00:50:38;20.94;20.67;11.89
82823;PMS5003;72575;46.834;-71.234;2024-02-04T00:53:03;27.61;22.72;15
82823;PMS5003;72575;46.834;-71.234;2024-02-04T00:55:29;25.68;25.53;15.26
82823;PMS5003;72575;46.834;-71.234;2024-02-04T00:57:55;28.44;26.61;15.56
82823;PMS5003;72575;46.834;-71.234;2024-02-04T01:00:20;31.94;27.56;16.78
82823;PMS5003;72575;46.834;-71.234;2024-02-04T01:02:46;38.65;36.15;18.4
82823;PMS5003;72575;46.834;-71.234;2024-02-04T01:05:09;33.94;31.56;17.06
82823;PMS5003;72575;46.834;-71.234;2024-02-04T01:07:35;32.05;28.53;18.16
82823;PMS5003;72575;46.834;-71.234;2024-02-04T01:10:01;35.72;27.83;17
82823;PMS5003;72575;46.834;-71.234;2024-02-04T01:12:26;44.68;42.18;25.91
82823;PMS5003;72575;46.834;-71.234;2024-02-04T01:14:51;31.1;29;17.5
82823;PMS5003;72575;46.834;-71.234;2024-02-04T01:17:19;42.21;38.53;18.74
82823;PMS5003;72575;46.834;-71.234;2024-02-04T01:19:42;46.32;42;23.89
82823;PMS5003;72575;46.834;-71.234;2024-02-04T01:22:08;38.81;36.48;23.57
82823;PMS5003;72575;46.834;-71.234;2024-02-04T01:24:33;43.3;37.75;24.35
82823;PMS5003;72575;46.834;-71.234;2024-02-04T01:26:57;36.24;29.95;19.67
82823;PMS5003;72575;46.834;-71.234;2024-02-04T01:29:26;34.91;31;22.41
82823;PMS5003;72575;46.834;-71.234;2024-02-04T01:31:51;39.81;33.71;21.48
82823;PMS5003;72575;46.834;-71.234;2024-02-04T01:34:14;41.05;38.32;21.95
82823;PMS5003;72575;46.834;-71.234;2024-02-04T01:36:40;40.35;36.35;19.45
82823;PMS5003;72575;46.834;-71.234;2024-02-04T01:39:06;53.05;45.95;26.95
82823;PMS5003;72575;46.834;-71.234;2024-02-04T01:41:32;51.47;46.58;24.68
82823;PMS5003;72575;46.834;-71.234;2024-02-04T01:43:58;52.74;46.84;28.42
82823;PMS5003;72575;46.834;-71.234;2024-02-04T01:46:24;56.38;48.76;29
82823;PMS5003;72575;46.834;-71.234;2024-02-04T01:48:47;74.39;59.67;35.61
82823;PMS5003;72575;46.834;-71.234;2024-02-04T01:51:14;70.44;56.22;31.44
82823;PMS5003;72575;46.834;-71.234;2024-02-04T01:53:38;61.56;52.39;30.5
82823;PMS5003;72575;46.834;-71.234;2024-02-04T01:56:04;53.42;47.68;30.84
82823;PMS5003;72575;46.834;-71.234;2024-02-04T01:58:30;67.44;55.06;33.33
82823;PMS5003;72575;46.834;-71.234;2024-02-04T02:00:55;63.9;51.71;28.38
82823;PMS5003;72575;46.834;-71.234;2024-02-04T02:03:22;58.7;50.6;30.45
82823;PMS5003;72575;46.834;-71.234;2024-02-04T02:05:45;61.35;51.9;31.9
82823;PMS5003;72575;46.834;-71.234;2024-02-04T02:08:11;67.39;54.94;31.28
82823;PMS5003;72575;46.834;-71.234;2024-02-04T02:10:36;67.16;55.79;31.26
82823;PMS5003;72575;46.834;-71.234;2024-02-04T02:13:04;68.35;55.2;31.9
82823;PMS5003;72575;46.834;-71.234;2024-02-04T02:15:27;68.7;53.55;33
82823;PMS5003;72575;46.834;-71.234;2024-02-04T02:17:58;67.74;56.53;31.58
82823;PMS5003;72575;46.834;-71.234;2024-02-04T02:20:21;65.35;53.95;32.3
82823;PMS5003;72575;46.834;-71.234;2024-02-04T02:22:47;69.42;55.37;33.11
82823;PMS5003;72575;46.834;-71.234;2024-02-04T02:25:11;57;47.52;29.38
82823;PMS5003;72575;46.834;-71.234;2024-02-04T02:27:45;71.7;57.35;33.2
82823;PMS5003;72575;46.834;-71.234;2024-02-04T02:29:59;68.74;56.42;33.47
82823;PMS5003;72575;46.834;-71.234;2024-02-04T02:32:25;64.33;51.61;32
82823;PMS5003;72575;46.834;-71.234;2024-02-04T02:34:51;70.11;57.5;33.67
82823;PMS5003;72575;46.834;-71.234;2024-02-04T02:37:20;65.18;55.27;32.77
82823;PMS5003;72575;46.834;-71.234;2024-02-04T02:39:44;71.37;57.79;32.53
82823;PMS5003;72575;46.834;-71.234;2024-02-04T02:42:08;57.57;49.86;31.19
82823;PMS5003;72575;46.834;-71.234;2024-02-04T02:44:32;73.7;58.95;34.8
82823;PMS5003;72575;46.834;-71.234;2024-02-04T02:46:59;70.78;59.22;34.56
82823;PMS5003;72575;46.834;-71.234;2024-02-04T02:49:22;65.58;54.79;31.68
82823;PMS5003;72575;46.834;-71.234;2024-02-04T02:51:49;58.62;49.57;32.81
82823;PMS5003;72575;46.834;-71.234;2024-02-04T02:54:14;69.71;56.38;32.71
82823;PMS5003;72575;46.834;-71.234;2024-02-04T02:56:40;69.1;57.1;33.15
82823;PMS5003;72575;46.834;-71.234;2024-02-04T02:59:05;70.33;56.83;34.33
82823;PMS5003;72575;46.834;-71.234;2024-02-04T03:01:31;68;52.7;33.3
82823;PMS5003;72575;46.834;-71.234;2024-02-04T03:03:57;53.79;47.53;29.53
82823;PMS5003;72575;46.834;-71.234;2024-02-04T03:06:20;49.9;43.9;23.65
82823;PMS5003;72575;46.834;-71.234;2024-02-04T03:09:00;53.53;46.84;27
82823;PMS5003;72575;46.834;-71.234;2024-02-04T03:11:23;61.8;52.1;28.7
82823;PMS5003;72575;46.834;-71.234;2024-02-04T03:13:49;29.9;28.14;17.1
82823;PMS5003;72575;46.834;-71.234;2024-02-04T03:16:15;29.76;24.76;12.43
82823;PMS5003;72575;46.834;-71.234;2024-02-04T03:18:41;24.43;20.67;13.29
82823;PMS5003;72575;46.834;-71.234;2024-02-04T03:21:11;32.9;31.29;19.57
82823;PMS5003;72575;46.834;-71.234;2024-02-04T03:23:32;48.32;42.79;24.37
82823;PMS5003;72575;46.834;-71.234;2024-02-04T03:25:58;31.27;27.59;18.59
82823;PMS5003;72575;46.834;-71.234;2024-02-04T03:28:23;35.7;31.15;17.9
82823;PMS5003;72575;46.834;-71.234;2024-02-04T03:30:49;50.3;46.2;24.15
82823;PMS5003;72575;46.834;-71.234;2024-02-04T03:33:14;38.89;38.28;20.56
82823;PMS5003;72575;46.834;-71.234;2024-02-04T03:35:40;39.52;37.86;21.19
82823;PMS5003;72575;46.834;-71.234;2024-02-04T03:38:04;49.62;45.05;26.81
82823;PMS5003;72575;46.834;-71.234;2024-02-04T03:40:30;40.29;34.71;19.52
82823;PMS5003;72575;46.834;-71.234;2024-02-04T03:42:55;42.14;35.27;23
82823;PMS5003;72575;46.834;-71.234;2024-02-04T03:45:20;43.16;40.21;21.53
82823;PMS5003;72575;46.834;-71.234;2024-02-04T03:47:46;42.43;37.38;22.29
82823;PMS5003;72575;46.834;-71.234;2024-02-04T03:50:12;75.11;59.53;35.21
82823;PMS5003;72575;46.834;-71.234;2024-02-04T03:52:38;39.9;37.9;22.71
82823;PMS5003;72575;46.834;-71.234;2024-02-04T03:55:04;44.1;40.19;22.62
82823;PMS5003;72575;46.834;-71.234;2024-02-04T03:57:28;57.28;46.83;26
82823;PMS5003;72575;46.834;-71.234;2024-02-04T03:59:53;43.05;42.14;23.86
82823;PMS5003;72575;46.834;-71.234;2024-02-04T04:02:20;50.32;45.05;24.47
82823;PMS5003;72575;46.834;-71.234;2024-02-04T04:04:46;47.55;45.15;24.5
82823;PMS5003;72575;46.834;-71.234;2024-02-04T04:07:10;53.67;42.81;25.29
82823;PMS5003;72575;46.834;-71.234;2024-02-04T04:09:35;47.14;43.76;22
82823;PMS5003;72575;46.834;-71.234;2024-02-04T04:12:02;55.47;46.95;25.05
82823;PMS5003;72575;46.834;-71.234;2024-02-04T04:14:26;46.14;39.57;23.52
82823;PMS5003;72575;46.834;-71.234;2024-02-04T04:16:53;46.15;43.3;23.05
82823;PMS5003;72575;46.834;-71.234;2024-02-04T04:19:19;47.79;44.68;25.84
82823;PMS5003;72575;46.834;-71.234;2024-02-04T04:21:43;46.21;43.74;24.16
82823;PMS5003;72575;46.834;-71.234;2024-02-04T04:24:07;43.58;40.32;22.95
82823;PMS5003;72575;46.834;-71.234;2024-02-04T04:26:33;52.32;47.63;26.37
82823;PMS5003;72575;46.834;-71.234;2024-02-04T04:28:59;48.28;44.56;26.94
82823;PMS5003;72575;46.834;-71.234;2024-02-04T04:31:25;56.47;46.68;25.21
82823;PMS5003;72575;46.834;-71.234;2024-02-04T04:33:51;34.62;33.24;19.62
82823;PMS5003;72575;46.834;-71.234;2024-02-04T04:36:15;40;35;20
82823;PMS5003;72575;46.834;-71.234;2024-02-04T04:38:42;37.95;33.9;20.81
82823;PMS5003;72575;46.834;-71.234;2024-02-04T04:41:08;40.52;34.14;21.48
82823;PMS5003;72575;46.834;-71.234;2024-02-04T04:43:32;50.33;42.95;26.14
82823;PMS5003;72575;46.834;-71.234;2024-02-04T04:46:00;48.67;43.38;26.57
82823;PMS5003;72575;46.834;-71.234;2024-02-04T04:48:22;52.11;47.79;26.74
82823;PMS5003;72575;46.834;-71.234;2024-02-04T04:50:51;51.95;45.7;26.2
82823;PMS5003;72575;46.834;-71.234;2024-02-04T04:53:15;64.1;52.76;31.24
82823;PMS5003;72575;46.834;-71.234;2024-02-04T04:55:40;69.21;55.84;31.42
82823;PMS5003;72575;46.834;-71.234;2024-02-04T04:58:06;56.55;50;29.9
82823;PMS5003;72575;46.834;-71.234;2024-02-04T05:00:31;67.6;54.65;33
82823;PMS5003;72575;46.834;-71.234;2024-02-04T05:02:56;69.63;57.58;33.11
82823;PMS5003;72575;46.834;-71.234;2024-02-04T05:05:20;77.19;61.9;33.81
82823;PMS5003;72575;46.834;-71.234;2024-02-04T05:07:48;62.62;53.38;32.57
82823;PMS5003;72575;46.834;-71.234;2024-02-04T05:10:12;60.68;50.05;26
82823;PMS5003;72575;46.834;-71.234;2024-02-04T05:12:39;67.4;52.6;31.15
82823;PMS5003;72575;46.834;-71.234;2024-02-04T05:15:05;70.56;57.72;32.67
82823;PMS5003;72575;46.834;-71.234;2024-02-04T05:17:28;68.6;55.2;31.95
82823;PMS5003;72575;46.834;-71.234;2024-02-04T05:19:53;67.3;52.7;31.7
82823;PMS5003;72575;46.834;-71.234;2024-02-04T05:22:19;66.29;52.19;31.1
82823;PMS5003;72575;46.834;-71.234;2024-02-04T05:24:45;58.41;48.77;29.82
82823;PMS5003;72575;46.834;-71.234;2024-02-04T05:27:12;59.95;51.71;30.52
82823;PMS5003;72575;46.834;-71.234;2024-02-04T05:29:35;65.24;51.29;31.57
82823;PMS5003;72575;46.834;-71.234;2024-02-04T05:32:01;62.24;53.05;30.33
82823;PMS5003;72575;46.834;-71.234;2024-02-04T05:34:27;63.58;52.63;29.84
82823;PMS5003;72575;46.834;-71.234;2024-02-04T05:36:52;63.15;49.1;27.65
82823;PMS5003;72575;46.834;-71.234;2024-02-04T05:39:16;63.89;50.79;30
82823;PMS5003;72575;46.834;-71.234;2024-02-04T05:41:42;58.68;50.11;29.47
82823;PMS5003;72575;46.834;-71.234;2024-02-04T05:44:08;58.9;48.76;29.71
82823;PMS5003;72575;46.834;-71.234;2024-02-04T05:46:34;51.4;45.8;26.1
82823;PMS5003;72575;46.834;-71.234;2024-02-04T05:49:00;52.48;45.29;24.71
82823;PMS5003;72575;46.834;-71.234;2024-02-04T05:51:23;61.16;50.58;29.05
82823;PMS5003;72575;46.834;-71.234;2024-02-04T05:53:49;51.86;45.48;28.71
82823;PMS5003;72575;46.834;-71.234;2024-02-04T05:56:15;57.19;47.14;29.81
82823;PMS5003;72575;46.834;-71.234;2024-02-04T05:58:41;45.41;42.09;23.95
82823;PMS5003;72575;46.834;-71.234;2024-02-04T06:01:08;37.48;36.86;22.48
82823;PMS5003;72575;46.834;-71.234;2024-02-04T06:03:32;50.09;43.09;24.14
82823;PMS5003;72575;46.834;-71.234;2024-02-04T06:05:58;51.55;46;25.4
82823;PMS5003;72575;46.834;-71.234;2024-02-04T06:08:23;46.8;43.7;24.85
82823;PMS5003;72575;46.834;-71.234;2024-02-04T06:10:49;56.68;48.47;27.42
82823;PMS5003;72575;46.834;-71.234;2024-02-04T06:13:13;81;61.53;32.58
82823;PMS5003;72575;46.834;-71.234;2024-02-04T06:15:40;69.52;55.9;32
82823;PMS5003;72575;46.834;-71.234;2024-02-04T06:18:06;78.05;60.05;32.9
82823;PMS5003;72575;46.834;-71.234;2024-02-04T06:20:31;66.76;53.14;29.86
82823;PMS5003;72575;46.834;-71.234;2024-02-04T06:22:54;59.8;49;27.1
82823;PMS5003;72575;46.834;-71.234;2024-02-04T06:25:20;36.43;32.95;17.86
82823;PMS5003;72575;46.834;-71.234;2024-02-04T06:27:46;62.14;48.19;28.33
82823;PMS5003;72575;46.834;-71.234;2024-02-04T06:30:10;65.85;54.95;30.65
82823;PMS5003;72575;46.834;-71.234;2024-02-04T06:32:37;44.68;42.86;22.5
82823;PMS5003;72575;46.834;-71.234;2024-02-04T06:35:03;44.17;40.89;21.67
82823;PMS5003;72575;46.834;-71.234;2024-02-04T06:37:29;32;28.48;17.05
82823;PMS5003;72575;46.834;-71.234;2024-02-04T06:39:54;54.85;47.8;28.85
82823;PMS5003;72575;46.834;-71.234;2024-02-04T06:42:17;35.48;32.33;18.57
82823;PMS5003;72575;46.834;-71.234;2024-02-04T06:44:43;31.76;30.14;16.71
82823;PMS5003;72575;46.834;-71.234;2024-02-04T06:47:10;24.19;23.1;14.24
82823;PMS5003;72575;46.834;-71.234;2024-02-04T06:49:35;27.77;26.68;15.82
82823;PMS5003;72575;46.834;-71.234;2024-02-04T06:52:02;31.05;28.67;16
82823;PMS5003;72575;46.834;-71.234;2024-02-04T06:54:25;25.1;23.24;15.29
82823;PMS5003;72575;46.834;-71.234;2024-02-04T06:56:51;26.57;23.9;13.67
82823;PMS5003;72575;46.834;-71.234;2024-02-04T06:59:17;25.33;22.33;13
82823;PMS5003;72575;46.834;-71.234;2024-02-04T07:01:40;30.85;26.15;14.15
82823;PMS5003;72575;46.834;-71.234;2024-02-04T07:04:06;27.2;25.1;11.4
82823;PMS5003;72575;46.834;-71.234;2024-02-04T07:06:33;25.14;21.68;12.23
82823;PMS5003;72575;46.834;-71.234;2024-02-04T07:08:58;24.76;23.33;12.1
82823;PMS5003;72575;46.834;-71.234;2024-02-04T07:11:25;21.38;19.76;12.86
82823;PMS5003;72575;46.834;-71.234;2024-02-04T07:13:50;20.67;18;10.57
82823;PMS5003;72575;46.834;-71.234;2024-02-04T07:16:14;21.86;15.9;8.95
82823;PMS5003;72575;46.834;-71.234;2024-02-04T07:18:40;18.9;17.38;9.9
82823;PMS5003;72575;46.834;-71.234;2024-02-04T07:21:06;28.19;25.67;15.14
82823;PMS5003;72575;46.834;-71.234;2024-02-04T07:23:31;38.52;36.38;18.19
82823;PMS5003;72575;46.834;-71.234;2024-02-04T07:25:56;26.33;24.19;11.33
82823;PMS5003;72575;46.834;-71.234;2024-02-04T07:28:21;20.67;18.9;11.62
82823;PMS5003;72575;46.834;-71.234;2024-02-04T07:30:48;22.8;20.8;11
82823;PMS5003;72575;46.834;-71.234;2024-02-04T07:33:13;24.05;22.37;12.11
82823;PMS5003;72575;46.834;-71.234;2024-02-04T07:35:39;27;21.86;13.76
82823;PMS5003;72575;46.834;-71.234;2024-02-04T07:38:02;27.28;25.28;12.78
82823;PMS5003;72575;46.834;-71.234;2024-02-04T07:40:28;26.32;24.59;13.23
82823;PMS5003;72575;46.834;-71.234;2024-02-04T07:42:53;17.05;16.95;10
82823;PMS5003;72575;46.834;-71.234;2024-02-04T07:45:20;15.57;15.48;8.9
82823;PMS5003;72575;46.834;-71.234;2024-02-04T07:47:45;21.38;17.24;9.9
82823;PMS5003;72575;46.834;-71.234;2024-02-04T07:50:09;10.19;9.9;6.67
82823;PMS5003;72575;46.834;-71.234;2024-02-04T07:52:35;16.62;13.67;7.1
82823;PMS5003;72575;46.834;-71.234;2024-02-04T07:55:01;14.1;12.33;7.19
82823;PMS5003;72575;46.834;-71.234;2024-02-04T07:57:27;16.86;15.5;8.36
82823;PMS5003;72575;46.834;-71.234;2024-02-04T07:59:53;15;14.57;8.33
82823;PMS5003;72575;46.834;-71.234;2024-02-04T08:02:19;18.86;17.52;8.24
82823;PMS5003;72575;46.834;-71.234;2024-02-04T08:04:42;21.29;18;9.9
82823;PMS5003;72575;46.834;-71.234;2024-02-04T08:07:08;19;15.71;9.43
82823;PMS5003;72575;46.834;-71.234;2024-02-04T08:09:34;13.76;12.95;8.52
82823;PMS5003;72575;46.834;-71.234;2024-02-04T08:11:58;18.57;16.29;7.86
82823;PMS5003;72575;46.834;-71.234;2024-02-04T08:14:24;16.41;15.14;10.27
82823;PMS5003;72575;46.834;-71.234;2024-02-04T08:16:50;19;16;8.1
82823;PMS5003;72575;46.834;-71.234;2024-02-04T08:19:15;13.14;11.67;7.43
82823;PMS5003;72575;46.834;-71.234;2024-02-04T08:21:42;16.14;14.81;7.76
82823;PMS5003;72575;46.834;-71.234;2024-02-04T08:24:06;14.19;14.19;8.9
82823;PMS5003;72575;46.834;-71.234;2024-02-04T08:26:32;21.24;16.71;11.05
82823;PMS5003;72575;46.834;-71.234;2024-02-04T08:28:55;14.43;13.52;8.33
82823;PMS5003;72575;46.834;-71.234;2024-02-04T08:31:23;11.5;10.82;8.32
82823;PMS5003;72575;46.834;-71.234;2024-02-04T08:33:46;27.29;24;11.81
82823;PMS5003;72575;46.834;-71.234;2024-02-04T08:36:12;39.55;34.95;16.05
82823;PMS5003;72575;46.834;-71.234;2024-02-04T08:38:38;24.58;22;9.47
82823;PMS5003;72575;46.834;-71.234;2024-02-04T08:41:03;16;15.38;10.1
82823;PMS5003;72575;46.834;-71.234;2024-02-04T08:43:28;14.9;14.38;9.24
82823;PMS5003;72575;46.834;-71.234;2024-02-04T08:45:54;18.33;16.48;8.71
82823;PMS5003;72575;46.834;-71.234;2024-02-04T08:48:20;24.35;20.85;10.2
82823;PMS5003;72575;46.834;-71.234;2024-02-04T08:50:45;21.05;18.9;11.05
82823;PMS5003;72575;46.834;-71.234;2024-02-04T08:53:12;24.71;21.43;11.86
82823;PMS5003;72575;46.834;-71.234;2024-02-04T08:55:38;29.78;26.33;11.94
82823;PMS5003;72575;46.834;-71.234;2024-02-04T08:58:01;21.52;18.62;10.19
82823;PMS5003;72575;46.834;-71.234;2024-02-04T09:23:43;15.14;12.33;8.71
82823;PMS5003;72575;46.834;-71.234;2024-02-04T09:23:51;18.18;16.5;9.73
82823;PMS5003;72575;46.834;-71.234;2024-02-04T09:24:02;14.82;14.82;7
82823;PMS5003;72575;46.834;-71.234;2024-02-04T09:24:12;17.32;14.91;8
82823;PMS5003;72575;46.834;-71.234;2024-02-04T09:24:23;24.43;21.67;9.62
82823;PMS5003;72575;46.834;-71.234;2024-02-04T09:24:30;18.68;16.36;9.82
82823;PMS5003;72575;46.834;-71.234;2024-02-04T09:24:40;17.9;16.24;9.33
82823;PMS5003;72575;46.834;-71.234;2024-02-04T09:25:14;20.1;19.3;10.3
82823;PMS5003;72575;46.834;-71.234;2024-02-04T09:27:40;14.29;12.67;6.62
82823;PMS5003;72575;46.834;-71.234;2024-02-04T09:30:06;19.6;12.3;6.95
82823;PMS5003;72575;46.834;-71.234;2024-02-04T09:32:31;18.9;15.95;9.67
82823;PMS5003;72575;46.834;-71.234;2024-02-04T09:34:57;13.76;12.48;7.48
82823;PMS5003;72575;46.834;-71.234;2024-02-04T09:37:23;15.91;15.09;7.82
82823;PMS5003;72575;46.834;-71.234;2024-02-04T09:39:49;15.05;14.33;8.81
82823;PMS5003;72575;46.834;-71.234;2024-02-04T09:42:18;11.43;9.76;6.05
82823;PMS5003;72575;46.834;-71.234;2024-02-04T09:44:38;9.1;8.71;4.43
82823;PMS5003;72575;46.834;-71.234;2024-02-04T09:47:04;15.29;13.14;6.67
82823;PMS5003;72575;46.834;-71.234;2024-02-04T09:49:31;11.86;11.24;6.38
82823;PMS5003;72575;46.834;-71.234;2024-02-04T09:51:55;19.43;13.29;6.62
82823;PMS5003;72575;46.834;-71.234;2024-02-04T09:54:22;14.41;13.05;8.27
82823;PMS5003;72575;46.834;-71.234;2024-02-04T09:56:45;12.05;11.15;6.45
82823;PMS5003;72575;46.834;-71.234;2024-02-04T09:59:11;11.1;9.62;5.1
82823;PMS5003;72575;46.834;-71.234;2024-02-04T10:01:38;10.67;10.67;5.95
82823;PMS5003;72575;46.834;-71.234;2024-02-04T10:04:03;12.05;10.95;6.24
82823;PMS5003;72575;46.834;-71.234;2024-02-04T10:06:27;11.9;10.38;7
82823;PMS5003;72575;46.834;-71.234;2024-02-04T10:08:53;10.71;10.71;6.9
82823;PMS5003;72575;46.834;-71.234;2024-02-04T10:11:31;21.91;15;7.55
82823;PMS5003;72575;46.834;-71.234;2024-02-04T10:13:57;14.91;14.68;8.86
82823;PMS5003;72575;46.834;-71.234;2024-02-04T10:16:20;15;11.71;6.48
82823;PMS5003;72575;46.834;-71.234;2024-02-04T10:18:47;12;12;7
82823;PMS5003;72575;46.834;-71.234;2024-02-04T10:21:16;12.7;12.7;7.8
82823;PMS5003;72575;46.834;-71.234;2024-02-04T10:23:36;15.71;15.62;10
82823;PMS5003;72575;46.834;-71.234;2024-02-04T10:26:02;16.1;14.81;8.43
82823;PMS5003;72575;46.834;-71.234;2024-02-04T10:28:27;18.64;17.05;9.68
82823;PMS5003;72575;46.834;-71.234;2024-02-04T10:30:53;26.85;25.45;15.15
82823;PMS5003;72575;46.834;-71.234;2024-02-04T10:33:19;43.05;38.8;18.1
82823;PMS5003;72575;46.834;-71.234;2024-02-04T10:35:45;62.7;53;27.2
82823;PMS5003;72575;46.834;-71.234;2024-02-04T10:38:11;32.95;30.45;16.2
82823;PMS5003;72575;46.834;-71.234;2024-02-04T10:40:34;43.84;35;18.58
82823;PMS5003;72575;46.834;-71.234;2024-02-04T10:43:03;28.9;20.45;12.85
82823;PMS5003;72575;46.834;-71.234;2024-02-04T10:45:27;20.9;19.19;12.19
82823;PMS5003;72575;46.834;-71.234;2024-02-04T10:47:52;24.25;20.2;8.9
82823;PMS5003;72575;46.834;-71.234;2024-02-04T10:50:16;18.33;17.57;10.29
82823;PMS5003;72575;46.834;-71.234;2024-02-04T10:52:43;19.8;17.1;10.5
82823;PMS5003;72575;46.834;-71.234;2024-02-04T10:55:07;23.3;21.05;12.7
82823;PMS5003;72575;46.834;-71.234;2024-02-04T10:57:34;18.7;16.6;10.2
82823;PMS5003;72575;46.834;-71.234;2024-02-04T10:59:58;24.7;22.8;14.5
82823;PMS5003;72575;46.834;-71.234;2024-02-04T11:02:25;20.24;20.24;11.81
82823;PMS5003;72575;46.834;-71.234;2024-02-04T11:04:49;21.95;20.55;11.7
82823;PMS5003;72575;46.834;-71.234;2024-02-04T11:07:14;22.9;21.65;13.05
82823;PMS5003;72575;46.834;-71.234;2024-02-04T11:09:42;23.25;22.85;16.5
82823;PMS5003;72575;46.834;-71.234;2024-02-04T11:12:11;22.43;22.33;12.29
82823;PMS5003;72575;46.834;-71.234;2024-02-04T11:14:31;29;25.85;17.9
82823;PMS5003;72575;46.834;-71.234;2024-02-04T11:17:00;44.45;36.65;19.35
82823;PMS5003;72575;46.834;-71.234;2024-02-04T11:19:25;23.86;21.62;13.19
82823;PMS5003;72575;46.834;-71.234;2024-02-04T11:21:54;23.65;21.85;16.4
82823;PMS5003;72575;46.834;-71.234;2024-02-04T11:24:17;33.11;31.16;16.47
82823;PMS5003;72575;46.834;-71.234;2024-02-04T11:26:38;26.6;23.55;13.5
82823;PMS5003;72575;46.834;-71.234;2024-02-04T11:29:03;27.95;26.68;13.95
82823;PMS5003;72575;46.834;-71.234;2024-02-04T11:31:31;24.6;22.5;15
82823;PMS5003;72575;46.834;-71.234;2024-02-04T11:33:54;23.7;20.75;12.5
82823;PMS5003;72575;46.834;-71.234;2024-02-04T11:36:24;21.67;20.14;12.76
82823;PMS5003;72575;46.834;-71.234;2024-02-04T11:38:48;28.05;26.85;14.65
82823;PMS5003;72575;46.834;-71.234;2024-02-04T11:41:10;22.86;21;11.9
82823;PMS5003;72575;46.834;-71.234;2024-02-04T11:43:36;21.52;18.67;12.71
82823;PMS5003;72575;46.834;-71.234;2024-02-04T11:46:02;23.89;20.11;13.68
82823;PMS5003;72575;46.834;-71.234;2024-02-04T11:48:28;19.8;18.45;12.95
82823;PMS5003;72575;46.834;-71.234;2024-02-04T11:50:54;17.8;17.2;8.85
82823;PMS5003;72575;46.834;-71.234;2024-02-04T11:53:17;23.9;21.48;11.71
82823;PMS5003;72575;46.834;-71.234;2024-02-04T11:55:44;26.94;23.17;11.72
82823;PMS5003;72575;46.834;-71.234;2024-02-04T11:58:10;21;19.2;9.75
82823;PMS5003;72575;46.834;-71.234;2024-02-04T12:00:36;23.25;21.5;10.6
82823;PMS5003;72575;46.834;-71.234;2024-02-04T12:02:59;21;18.84;11.68
82823;PMS5003;72575;46.834;-71.234;2024-02-04T12:05:23;32.35;27.2;12.6
82823;PMS5003;72575;46.834;-71.234;2024-02-04T12:07:49;31.58;28.58;14.26
82823;PMS5003;72575;46.834;-71.234;2024-02-04T12:10:16;19.32;19.18;9.55
82823;PMS5003;72575;46.834;-71.234;2024-02-04T12:12:43;23.65;21.4;12.4
82823;PMS5003;72575;46.834;-71.234;2024-02-04T12:15:07;27.35;25.65;14.55
82823;PMS5003;72575;46.834;-71.234;2024-02-04T12:17:32;18.71;18.05;12
82823;PMS5003;72575;46.834;-71.234;2024-02-04T12:19:58;40;33.3;17.95
82823;PMS5003;72575;46.834;-71.234;2024-02-04T12:22:24;31.22;29.44;15.5
82823;PMS5003;72575;46.834;-71.234;2024-02-04T12:24:48;27.9;25.5;14.8
82823;PMS5003;72575;46.834;-71.234;2024-02-04T12:27:15;17.38;16.67;11.57
82823;PMS5003;72575;46.834;-71.234;2024-02-04T12:29:40;25.75;23.25;14.65
82823;PMS5003;72575;46.834;-71.234;2024-02-04T12:32:06;23.35;22.75;13.8
82823;PMS5003;72575;46.834;-71.234;2024-02-04T12:34:31;26.45;23.6;14.5
82823;PMS5003;72575;46.834;-71.234;2024-02-04T12:36:59;28.75;23;12.1
82823;PMS5003;72575;46.834;-71.234;2024-02-04T12:39:21;24.4;22.85;12.4
82823;PMS5003;72575;46.834;-71.234;2024-02-04T12:41:50;26.15;24.25;13
82823;PMS5003;72575;46.834;-71.234;2024-02-04T12:44:12;26.9;24.1;15.67
82823;PMS5003;72575;46.834;-71.234;2024-02-04T12:46:37;23.5;23.5;12.2
82823;PMS5003;72575;46.834;-71.234;2024-02-04T12:49:02;19.2;15.45;10.7
82823;PMS5003;72575;46.834;-71.234;2024-02-04T12:51:30;21.67;16.95;10.71
82823;PMS5003;72575;46.834;-71.234;2024-02-04T12:54:02;26.3;25.4;13.7
82823;PMS5003;72575;46.834;-71.234;2024-02-04T12:56:20;32.24;31.05;17.43
82823;PMS5003;72575;46.834;-71.234;2024-02-04T12:58:45;26;20.65;13.25
82823;PMS5003;72575;46.834;-71.234;2024-02-04T13:01:11;22.43;20.71;10.86
82823;PMS5003;72575;46.834;-71.234;2024-02-04T13:03:36;25.15;22.7;11.25
82823;PMS5003;72575;46.834;-71.234;2024-02-04T13:06:02;28.05;25.81;12.57
82823;PMS5003;72575;46.834;-71.234;2024-02-04T13:08:25;19.79;18.16;11.74
82823;PMS5003;72575;46.834;-71.234;2024-02-04T13:10:53;22.05;19.05;11.8
82823;PMS5003;72575;46.834;-71.234;2024-02-04T13:13:18;23.3;21.45;14.7
82823;PMS5003;72575;46.834;-71.234;2024-02-04T13:15:45;26.4;22.15;12.55
82823;PMS5003;72575;46.834;-71.234;2024-02-04T13:18:12;24.5;22.05;13.35
82823;PMS5003;72575;46.834;-71.234;2024-02-04T13:20:37;19.05;16.47;10.26
82823;PMS5003;72575;46.834;-71.234;2024-02-04T13:23:03;25.05;22.21;12.26
82823;PMS5003;72575;46.834;-71.234;2024-02-04T13:25:27;18.94;18.17;11.56
82823;PMS5003;72575;46.834;-71.234;2024-02-04T13:27:56;30.95;27.48;12.67
82823;PMS5003;72575;46.834;-71.234;2024-02-04T13:30:17;30.2;28.2;17.55
82823;PMS5003;72575;46.834;-71.234;2024-02-04T13:32:46;26.67;24.67;13.05
82823;PMS5003;72575;46.834;-71.234;2024-02-04T13:35:11;34.85;30.55;16.55
82823;PMS5003;72575;46.834;-71.234;2024-02-04T13:37:36;33.9;30.75;17.7